Time;durP1;ratioP1;P1;durP2;ratioP2;P2;SDS_P1;SDS_P2;PMS_P1;PMS_P2;Temp;Humidity;BMP_temperature;BMP_pressure;BME280_temperature;BME280_humidity;BME280_pressure;Samples;Min_cycle;Max_cycle;Signal;HPM_P1;HPM_P2
2022/09/21 00:00:21;;;;;;;;;;;;;;;;;;4906588;29;19923;-63
2022/09/21 00:02:46;;;;;;;;;;;;;;;;;;4908791;29;19982;-62
2022/09/21 00:05:12;;;;;;;;;;;;;;;;;;4908654;29;19923;-62
2022/09/21 00:07:38;;;;;;;;;;;;;;;;;;4910752;29;19926;-62
2022/09/21 00:10:04;;;;;;;;;;;;;;;;;;4896335;28;20466;-62
2022/09/21 00:12:30;;;;;;;;;;;;;;;;;;4923604;28;20076;-62
2022/09/21 00:14:56;;;;;;;;;;;;;;;;;;4935466;28;19971;-62
2022/09/21 00:17:22;;;;;;;;;;;;;;;;;;4938569;28;20056;-62
2022/09/21 00:19:49;;;;;;;;;;;;;;;;;;4926171;28;19923;-63
2022/09/21 00:22:15;;;;;;;;;;;;;;;;;;4939411;28;20156;-62
2022/09/21 00:24:43;;;;;;;;;;;;;;;;;;4939051;28;19925;-62
2022/09/21 00:27:10;;;;;;;;;;;;;;;;;;4923300;28;19985;-63
2022/09/21 00:29:39;;;;;;;;;;;;;;;;;;4922719;28;19922;-62
2022/09/21 00:32:04;;;;;;;;;;;;;;;;;;4934279;28;19931;-62
2022/09/21 00:34:31;;;;;;;;;;;;;;;;;;4918759;28;19925;-62
2022/09/21 00:36:58;;;;;;;;;;;;;;;;;;4916636;28;20001;-62
2022/09/21 00:39:24;;;;;;;;;;;;;;;;;;4926482;28;19953;-62
2022/09/21 00:41:52;;;;;;;;;;;;;;;;;;4937744;28;20859;-62
2022/09/21 00:44:17;;;;;;;;;;;;;;;;;;4938098;28;19961;-62
2022/09/21 00:46:43;;;;;;;;;;;;;;;;;;4916346;28;19930;-63
2022/09/21 00:49:11;;;;;;;;;;;;;;;;;;4939471;28;19969;-62
2022/09/21 00:51:36;;;;;;;;;;;;;;;;;;4922488;28;20835;-62
2022/09/21 00:54:01;;;;;;;;;;;;;;;;;;4922198;28;19933;-63
2022/09/21 00:56:27;;;;;;;;;;;;;;;;;;4938879;28;19930;-63
2022/09/21 00:58:53;;;;;;;;;;;;;;;;;;4924203;28;19930;-63
2022/09/21 01:01:18;;;;;;;;;;;;;;;;;;4922579;28;19926;-62
2022/09/21 01:03:46;;;;;;;;;;;;;;;;;;4923162;28;22361;-62
2022/09/21 01:06:14;;;;;;;;;;;;;;;;;;4906644;28;19978;-62
2022/09/21 01:08:41;;;;;;;;;;;;;;;;;;4927993;28;19922;-62
2022/09/21 01:11:07;;;;;;;;;;;;;;;;;;4927027;28;20429;-63
2022/09/21 01:13:33;;;;;;;;;;;;;;;;;;4924776;28;19922;-62
2022/09/21 01:16:00;;;;;;;;;;;;;;;;;;4925342;28;19923;-62
2022/09/21 01:18:27;;;;;;;;;;;;;;;;;;4924285;28;21026;-64
2022/09/21 01:20:54;;;;;;;;;;;;;;;;;;4936576;28;19922;-62
2022/09/21 01:23:22;;;;;;;;;;;;;;;;;;4905178;28;19933;-62
2022/09/21 01:25:49;;;;;;;;;;;;;;;;;;4922286;28;19954;-63
2022/09/21 01:28:14;;;;;;;;;;;;;;;;;;4924761;28;19930;-63
2022/09/21 01:30:40;;;;;;;;;;;;;;;;;;4938274;28;19919;-63
2022/09/21 01:33:06;;;;;;;;;;;;;;;;;;4936150;28;20028;-63
2022/09/21 01:35:34;;;;;;;;;;;;;;;;;;4934779;28;19958;-62
2022/09/21 01:37:59;;;;;;;;;;;;;;;;;;4925929;28;19919;-63
2022/09/21 01:40:25;;;;;;;;;;;;;;;;;;4928149;28;20607;-62
2022/09/21 01:42:50;;;;;;;;;;;;;;;;;;4925688;28;21910;-62
2022/09/21 01:45:18;;;;;;;;;;;;;;;;;;4908709;28;19934;-62
2022/09/21 01:47:44;;;;;;;;;;;;;;;;;;4923844;28;19922;-63
2022/09/21 01:50:09;;;;;;;;;;;;;;;;;;4919830;28;19934;-62
2022/09/21 01:52:36;;;;;;;;;;;;;;;;;;4920716;28;19927;-62
2022/09/21 01:55:02;;;;;;;;;;;;;;;;;;4923511;28;20395;-63
2022/09/21 01:57:27;;;;;;;;;;;;;;;;;;4907251;28;19923;-62
2022/09/21 01:59:55;;;;;;;;;;;;;;;;;;4923461;28;19923;-63
2022/09/21 02:02:25;;;;;;;;;;;;;;;;;;4907027;28;20016;-63
2022/09/21 02:04:52;;;;;;;;;;;;;;;;;;4924455;28;20418;-62
2022/09/21 02:07:18;;;;;;;;;;;;;;;;;;4919097;28;19922;-63
2022/09/21 02:09:46;;;;;;;;;;;;;;;;;;4940143;28;19953;-63
2022/09/21 02:12:16;;;;;;;;;;;;;;;;;;4924427;28;19934;-64
2022/09/21 02:14:44;;;;;;;;;;;;;;;;;;4921590;28;19922;-61
2022/09/21 02:17:10;;;;;;;;;;;;;;;;;;4920967;28;19974;-64
2022/09/21 02:19:35;;;;;;;;;;;;;;;;;;4922121;28;19974;-63
2022/09/21 02:22:02;;;;;;;;;;;;;;;;;;4921420;28;19929;-63
2022/09/21 02:24:27;;;;;;;;;;;;;;;;;;4922636;28;20323;-63
2022/09/21 02:26:55;;;;;;;;;;;;;;;;;;4927001;28;20005;-63
2022/09/21 02:29:20;;;;;;;;;;;;;;;;;;4935065;28;19929;-63
2022/09/21 02:31:47;;;;;;;;;;;;;;;;;;4905360;28;19927;-63
2022/09/21 02:34:13;;;;;;;;;;;;;;;;;;4919174;28;21912;-63
2022/09/21 02:36:43;;;;;;;;;;;;;;;;;;4905048;28;19930;-63
2022/09/21 02:39:09;;;;;;;;;;;;;;;;;;4942200;28;19929;-63
2022/09/21 02:41:35;;;;;;;;;;;;;;;;;;4927052;28;19922;-62
2022/09/21 02:44:03;;;;;;;;;;;;;;;;;;4928149;28;20041;-62
2022/09/21 02:46:31;;;;;;;;;;;;;;;;;;4943561;28;19929;-61
2022/09/21 02:48:56;;;;;;;;;;;;;;;;;;4931334;28;20009;-62
2022/09/21 02:51:22;;;;;;;;;;;;;;;;;;4911542;28;19930;-61
2022/09/21 02:53:47;;;;;;;;;;;;;;;;;;4927038;28;19923;-61
2022/09/21 02:56:13;;;;;;;;;;;;;;;;;;4927802;28;19919;-62
2022/09/21 02:58:41;;;;;;;;;;;;;;;;;;4927863;28;20161;-62
2022/09/21 03:01:08;;;;;;;;;;;;;;;;;;4941747;28;19927;-62
2022/09/21 03:03:33;;;;;;;;;;;;;;;;;;4911331;28;19929;-62
2022/09/21 03:05:59;;;;;;;;;;;;;;;;;;4928462;28;19922;-63
2022/09/21 03:08:27;;;;;;;;;;;;;;;;;;4931837;28;19969;-62
2022/09/21 03:10:52;;;;;;;;;;;;;;;;;;4935146;28;19922;-62
2022/09/21 03:13:18;;;;;;;;;;;;;;;;;;4959878;28;19929;-63
2022/09/21 03:15:44;;;;;;;;;;;;;;;;;;4925266;28;20422;-62
2022/09/21 03:18:10;;;;;;;;;;;;;;;;;;4922877;28;20625;-62
2022/09/21 03:20:35;;;;;;;;;;;;;;;;;;4958839;28;19976;-62
2022/09/21 03:23:00;;;;;;;;;;;;;;;;;;4928463;28;19927;-62
2022/09/21 03:25:28;;;;;;;;;;;;;;;;;;4958196;28;20397;-62
2022/09/21 03:27:53;;;;;;;;;;;;;;;;;;4955918;28;19926;-62
2022/09/21 03:30:21;;;;;;;;;;;;;;;;;;4939488;28;19932;-61
2022/09/21 03:32:46;;;;;;;;;;;;;;;;;;4921626;28;20776;-62
2022/09/21 03:35:14;;;;;;;;;;;;;;;;;;4923413;28;20491;-62
2022/09/21 03:37:39;;;;;;;;;;;;;;;;;;4953886;28;19922;-62
2022/09/21 03:40:04;;;;;;;;;;;;;;;;;;4942952;28;19954;-61
2022/09/21 03:42:29;;;;;;;;;;;;;;;;;;4958787;28;19922;-61
2022/09/21 03:44:55;;;;;;;;;;;;;;;;;;4929451;28;19970;-62
2022/09/21 03:47:20;;;;;;;;;;;;;;;;;;4955584;28;21432;-63
2022/09/21 03:49:48;;;;;;;;;;;;;;;;;;4942709;28;19929;-62
2022/09/21 03:52:13;;;;;;;;;;;;;;;;;;4923380;28;19926;-62
2022/09/21 03:54:41;;;;;;;;;;;;;;;;;;4954210;28;19965;-62
2022/09/21 03:57:07;;;;;;;;;;;;;;;;;;4924183;28;19922;-62
2022/09/21 03:59:35;;;;;;;;;;;;;;;;;;4953097;28;19923;-62
2022/09/21 04:02:03;;;;;;;;;;;;;;;;;;4939600;28;19922;-62
2022/09/21 04:04:28;;;;;;;;;;;;;;;;;;4921494;28;20522;-61
2022/09/21 04:06:55;;;;;;;;;;;;;;;;;;4922679;28;20674;-61
2022/09/21 04:09:21;;;;;;;;;;;;;;;;;;4956051;28;19922;-62
2022/09/21 04:11:51;;;;;;;;;;;;;;;;;;4955109;28;19927;-61
2022/09/21 04:14:21;;;;;;;;;;;;;;;;;;4931880;28;20046;-61
2022/09/21 04:16:46;;;;;;;;;;;;;;;;;;4954923;28;21230;-61
2022/09/21 04:19:11;;;;;;;;;;;;;;;;;;4928381;28;20358;-61
2022/09/21 04:21:36;;;;;;;;;;;;;;;;;;4923536;28;20472;-61
2022/09/21 04:24:04;;;;;;;;;;;;;;;;;;4956036;28;19938;-61
2022/09/21 04:26:30;;;;;;;;;;;;;;;;;;4926505;28;19922;-61
2022/09/21 04:28:55;;;;;;;;;;;;;;;;;;4926515;28;19918;-61
2022/09/21 04:31:20;;;;;;;;;;;;;;;;;;4928167;28;19938;-61
2022/09/21 04:33:46;;;;;;;;;;;;;;;;;;4923055;28;20430;-61
2022/09/21 04:36:11;;;;;;;;;;;;;;;;;;4956353;28;19930;-61
2022/09/21 04:38:39;;;;;;;;;;;;;;;;;;4941992;28;19922;-61
2022/09/21 04:41:04;;;;;;;;;;;;;;;;;;4924906;28;19925;-61
2022/09/21 04:43:35;;;;;;;;;;;;;;;;;;4927083;28;20651;-61
2022/09/21 04:46:03;;;;;;;;;;;;;;;;;;4927675;28;20109;-61
2022/09/21 04:48:28;;;;;;;;;;;;;;;;;;4940128;28;19922;-60
2022/09/21 04:50:56;;;;;;;;;;;;;;;;;;4926560;28;19933;-62
2022/09/21 04:53:22;;;;;;;;;;;;;;;;;;4924318;28;19923;-62
2022/09/21 04:55:49;;;;;;;;;;;;;;;;;;4948571;28;19968;-61
2022/09/21 04:58:17;;;;;;;;;;;;;;;;;;4957707;28;20370;-61
2022/09/21 05:00:42;;;;;;;;;;;;;;;;;;4953689;28;19989;-60
2022/09/21 05:03:10;;;;;;;;;;;;;;;;;;4954827;28;20040;-60
2022/09/21 05:05:35;;;;;;;;;;;;;;;;;;4954391;28;19918;-60
2022/09/21 05:08:00;;;;;;;;;;;;;;;;;;4955635;28;20453;-61
2022/09/21 05:10:26;;;;;;;;;;;;;;;;;;4951854;28;19969;-61
2022/09/21 05:12:52;;;;;;;;;;;;;;;;;;4927424;28;19976;-61
2022/09/21 05:15:18;;;;;;;;;;;;;;;;;;4921760;28;19974;-60
2022/09/21 05:17:43;;;;;;;;;;;;;;;;;;4925595;28;19945;-62
2022/09/21 05:20:08;;;;;;;;;;;;;;;;;;4930854;28;20492;-60
2022/09/21 05:22:33;;;;;;;;;;;;;;;;;;4960697;28;19923;-60
2022/09/21 05:25:04;;;;;;;;;;;;;;;;;;4959073;28;19942;-59
2022/09/21 05:27:32;;;;;;;;;;;;;;;;;;4927508;28;19944;-60
2022/09/21 05:29:57;;;;;;;;;;;;;;;;;;4958933;28;20353;-61
2022/09/21 05:32:23;;;;;;;;;;;;;;;;;;4929764;28;19941;-61
2022/09/21 05:34:48;;;;;;;;;;;;;;;;;;4945173;28;19919;-60
2022/09/21 05:37:15;;;;;;;;;;;;;;;;;;4961368;28;19926;-60
2022/09/21 05:39:44;;;;;;;;;;;;;;;;;;4930504;28;19922;-60
2022/09/21 05:42:09;;;;;;;;;;;;;;;;;;4929919;28;19994;-61
2022/09/21 05:44:34;;;;;;;;;;;;;;;;;;4963409;28;20986;-60
2022/09/21 05:47:02;;;;;;;;;;;;;;;;;;4953863;28;19926;-61
2022/09/21 05:49:27;;;;;;;;;;;;;;;;;;4963189;28;19950;-61
2022/09/21 05:51:55;;;;;;;;;;;;;;;;;;4943678;28;19926;-62
2022/09/21 05:54:22;;;;;;;;;;;;;;;;;;4929731;28;19922;-60
2022/09/21 05:57:00;;;;;;;;;;;;;;;;;;4961291;28;19923;-61
2022/09/21 05:59:27;;;;;;;;;;;;;;;;;;4928883;28;20244;-61
2022/09/21 06:01:53;;;;;;;;;;;;;;;;;;4960853;28;19918;-61
2022/09/21 06:04:21;;;;;;;;;;;;;;;;;;4961851;28;19929;-61
2022/09/21 06:06:49;;;;;;;;;;;;;;;;;;4927778;28;20004;-61
2022/09/21 06:09:16;;;;;;;;;;;;;;;;;;4925738;28;19985;-61
2022/09/21 06:11:42;;;;;;;;;;;;;;;;;;4941834;28;20387;-61
2022/09/21 06:14:07;;;;;;;;;;;;;;;;;;4926232;28;19930;-62
2022/09/21 06:16:32;;;;;;;;;;;;;;;;;;4957289;28;19927;-62
2022/09/21 06:18:58;;;;;;;;;;;;;;;;;;4959291;28;20379;-62
2022/09/21 06:21:23;;;;;;;;;;;;;;;;;;4936677;28;19922;-61
2022/09/21 06:23:51;;;;;;;;;;;;;;;;;;4926608;28;19933;-61
2022/09/21 06:26:16;;;;;;;;;;;;;;;;;;4927623;28;20380;-60
2022/09/21 06:28:41;;;;;;;;;;;;;;;;;;4924400;28;20627;-61
2022/09/21 06:31:07;;;;;;;;;;;;;;;;;;4922472;28;19965;-62
2022/09/21 06:33:34;;;;;;;;;;;;;;;;;;4940636;28;21964;-62
2022/09/21 06:36:04;;;;;;;;;;;;;;;;;;4924702;28;19918;-61
2022/09/21 06:38:29;;;;;;;;;;;;;;;;;;4926841;28;19970;-61
2022/09/21 06:40:55;;;;;;;;;;;;;;;;;;4959102;28;19926;-62
2022/09/21 06:43:20;;;;;;;;;;;;;;;;;;4929204;28;20066;-62
2022/09/21 06:45:45;;;;;;;;;;;;;;;;;;4955173;28;19922;-61
2022/09/21 06:48:11;;;;;;;;;;;;;;;;;;4922445;28;20362;-62
2022/09/21 06:50:39;;;;;;;;;;;;;;;;;;4925170;28;19922;-62
2022/09/21 06:53:06;;;;;;;;;;;;;;;;;;4955901;28;20005;-62
2022/09/21 06:55:34;;;;;;;;;;;;;;;;;;4957494;28;19923;-62
2022/09/21 06:58:02;;;;;;;;;;;;;;;;;;4924697;28;19922;-62
2022/09/21 07:00:29;;;;;;;;;;;;;;;;;;4936456;28;19936;-63
2022/09/21 07:02:57;;;;;;;;;;;;;;;;;;4954139;28;19923;-63
2022/09/21 07:05:22;;;;;;;;;;;;;;;;;;4927473;28;19970;-63
2022/09/21 07:07:47;;;;;;;;;;;;;;;;;;4959731;28;20397;-63
2022/09/21 07:10:15;;;;;;;;;;;;;;;;;;4960802;28;19922;-63
2022/09/21 07:12:43;;;;;;;;;;;;;;;;;;4957304;28;19927;-64
2022/09/21 07:15:12;;;;;;;;;;;;;;;;;;4929188;28;19922;-64
2022/09/21 07:17:40;;;;;;;;;;;;;;;;;;4927053;28;19922;-64
2022/09/21 07:20:05;;;;;;;;;;;;;;;;;;4929980;28;19974;-64
2022/09/21 07:22:31;;;;;;;;;;;;;;;;;;4930383;28;20906;-64
2022/09/21 07:24:56;;;;;;;;;;;;;;;;;;4929665;28;19927;-64
2022/09/21 07:27:22;;;;;;;;;;;;;;;;;;4945169;28;19922;-64
2022/09/21 07:29:49;;;;;;;;;;;;;;;;;;4931054;28;19918;-65
2022/09/21 07:32:15;;;;;;;;;;;;;;;;;;4930508;28;19922;-66
2022/09/21 07:34:40;;;;;;;;;;;;;;;;;;4931877;28;19918;-65
2022/09/21 07:37:06;;;;;;;;;;;;;;;;;;4958527;28;19922;-65
2022/09/21 07:39:31;;;;;;;;;;;;;;;;;;4943911;28;19938;-65
2022/09/21 07:42:00;;;;;;;;;;;;;;;;;;4961276;28;19953;-66
2022/09/21 07:44:25;;;;;;;;;;;;;;;;;;4927705;28;20514;-65
2022/09/21 07:46:51;;;;;;;;;;;;;;;;;;4962280;28;19922;-65
2022/09/21 07:49:17;;;;;;;;;;;;;;;;;;4959249;28;19987;-65
2022/09/21 07:51:43;;;;;;;;;;;;;;;;;;4933905;28;19926;-66
2022/09/21 07:54:08;;;;;;;;;;;;;;;;;;4963433;28;19922;-65
2022/09/21 07:56:35;;;;;;;;;;;;;;;;;;4930250;28;19918;-66
2022/09/21 07:59:06;;;;;;;;;;;;;;;;;;4945691;28;19923;-66
2022/09/21 08:01:32;;;;;;;;;;;;;;;;;;4962384;28;19923;-66
2022/09/21 08:03:57;;;;;;;;;;;;;;;;;;4964418;28;20032;-66
2022/09/21 08:06:25;;;;;;;;;;;;;;;;;;4958259;28;19922;-67
2022/09/21 08:08:51;;;;;;;;;;;;;;;;;;4962513;28;19925;-66
2022/09/21 08:11:16;;;;;;;;;;;;;;;;;;4962243;28;20302;-67
2022/09/21 08:13:41;;;;;;;;;;;;;;;;;;4945780;28;20334;-67
2022/09/21 08:16:09;;;;;;;;;;;;;;;;;;4930841;28;19941;-67
2022/09/21 08:18:34;;;;;;;;;;;;;;;;;;4962622;28;19918;-67
2022/09/21 08:21:00;;;;;;;;;;;;;;;;;;4932308;28;19922;-66
2022/09/21 08:23:27;;;;;;;;;;;;;;;;;;4961824;28;19961;-67
2022/09/21 08:25:53;;;;;;;;;;;;;;;;;;4930823;28;20302;-65
2022/09/21 08:28:18;;;;;;;;;;;;;;;;;;4929980;28;19918;-67
2022/09/21 08:30:44;;;;;;;;;;;;;;;;;;4930452;28;19929;-66
2022/09/21 08:33:09;;;;;;;;;;;;;;;;;;4930467;28;20360;-66
2022/09/21 08:35:37;;;;;;;;;;;;;;;;;;4931315;28;20014;-64
2022/09/21 08:38:05;;;;;;;;;;;;;;;;;;4930671;28;20012;-66
2022/09/21 08:40:31;;;;;;;;;;;;;;;;;;4960387;28;20441;-65
2022/09/21 08:42:56;;;;;;;;;;;;;;;;;;4932786;28;19926;-66
2022/09/21 08:45:22;;;;;;;;;;;;;;;;;;4962929;28;19926;-66
2022/09/21 08:47:48;;;;;;;;;;;;;;;;;;4931145;28;19919;-64
2022/09/21 08:50:13;;;;;;;;;;;;;;;;;;4931508;28;19926;-65
2022/09/21 08:52:38;;;;;;;;;;;;;;;;;;4927015;28;21836;-66
2022/09/21 08:55:04;;;;;;;;;;;;;;;;;;4961120;28;20009;-65
2022/09/21 08:57:29;;;;;;;;;;;;;;;;;;4930223;28;19971;-64
2022/09/21 08:59:54;;;;;;;;;;;;;;;;;;4961825;28;19914;-66
2022/09/21 09:02:22;;;;;;;;;;;;;;;;;;4960605;28;19923;-61
2022/09/21 09:04:49;;;;;;;;;;;;;;;;;;4930397;28;20383;-63
2022/09/21 09:07:15;;;;;;;;;;;;;;;;;;4931072;28;19926;-60
2022/09/21 09:09:40;;;;;;;;;;;;;;;;;;4929852;28;20010;-65
2022/09/21 09:12:08;;;;;;;;;;;;;;;;;;4962269;28;22065;-65
2022/09/21 09:14:34;;;;;;;;;;;;;;;;;;4945743;28;20025;-64
2022/09/21 09:16:59;;;;;;;;;;;;;;;;;;4929005;28;19929;-66
2022/09/21 09:19:25;;;;;;;;;;;;;;;;;;4944816;28;20540;-63
2022/09/21 09:21:54;;;;;;;;;;;;;;;;;;4926659;28;20689;-65
2022/09/21 09:24:19;;;;;;;;;;;;;;;;;;4942279;28;19970;-64
2022/09/21 09:26:45;;;;;;;;;;;;;;;;;;4960215;28;19926;-66
2022/09/21 09:29:12;;;;;;;;;;;;;;;;;;4932071;28;20441;-66
2022/09/21 09:31:40;;;;;;;;;;;;;;;;;;4930081;28;20703;-62
2022/09/21 09:34:08;;;;;;;;;;;;;;;;;;4930324;28;19929;-64
2022/09/21 09:36:33;;;;;;;;;;;;;;;;;;4927139;28;19929;-65
2022/09/21 09:39:01;;;;;;;;;;;;;;;;;;4951986;28;20090;-65
2022/09/21 09:41:28;;;;;;;;;;;;;;;;;;4930814;28;19923;-64
2022/09/21 09:43:56;;;;;;;;;;;;;;;;;;4925670;28;20021;-65
2022/09/21 09:46:24;;;;;;;;;;;;;;;;;;4962373;28;19922;-68
2022/09/21 09:48:50;;;;;;;;;;;;;;;;;;4928741;28;19922;-66
2022/09/21 09:51:15;;;;;;;;;;;;;;;;;;4941001;28;20047;-65
2022/09/21 09:53:41;;;;;;;;;;;;;;;;;;4930489;28;19930;-66
2022/09/21 09:56:09;;;;;;;;;;;;;;;;;;4946820;28;19926;-66
2022/09/21 09:58:35;;;;;;;;;;;;;;;;;;4927375;28;19930;-65
2022/09/21 10:01:00;;;;;;;;;;;;;;;;;;4928819;28;20118;-66
2022/09/21 10:03:28;;;;;;;;;;;;;;;;;;4959330;28;19931;-65
2022/09/21 10:05:55;;;;;;;;;;;;;;;;;;4927491;28;20490;-64
2022/09/21 10:08:21;;;;;;;;;;;;;;;;;;4924840;28;19922;-67
2022/09/21 10:10:48;;;;;;;;;;;;;;;;;;4944913;28;19962;-66
2022/09/21 10:13:13;;;;;;;;;;;;;;;;;;4959130;28;20009;-65
2022/09/21 10:15:41;;;;;;;;;;;;;;;;;;4928410;28;20006;-66
2022/09/21 10:18:06;;;;;;;;;;;;;;;;;;4956008;28;19949;-65
2022/09/21 10:20:32;;;;;;;;;;;;;;;;;;4960850;28;19982;-67
2022/09/21 10:22:59;;;;;;;;;;;;;;;;;;4960149;28;20552;-64
2022/09/21 10:25:25;;;;;;;;;;;;;;;;;;4936581;28;19922;-65
2022/09/21 10:27:50;;;;;;;;;;;;;;;;;;4931356;28;19961;-64
2022/09/21 10:30:15;;;;;;;;;;;;;;;;;;4927868;28;19919;-67
2022/09/21 10:32:41;;;;;;;;;;;;;;;;;;4958819;28;19923;-66
2022/09/21 10:35:06;;;;;;;;;;;;;;;;;;4956176;28;19929;-66
2022/09/21 10:37:40;;;;;;;;;;;;;;;;;;4940360;28;19930;-66
2022/09/21 10:40:05;;;;;;;;;;;;;;;;;;4923956;28;19933;-66
2022/09/21 10:42:30;;;;;;;;;;;;;;;;;;4934585;28;20294;-68
2022/09/21 10:44:56;;;;;;;;;;;;;;;;;;4923874;28;19990;-67
2022/09/21 10:47:21;;;;;;;;;;;;;;;;;;4955963;28;19922;-67
2022/09/21 10:49:46;;;;;;;;;;;;;;;;;;4957226;28;19929;-67
2022/09/21 10:52:12;;;;;;;;;;;;;;;;;;4925030;28;19922;-66
2022/09/21 10:54:37;;;;;;;;;;;;;;;;;;4943060;28;20020;-66
2022/09/21 10:57:02;;;;;;;;;;;;;;;;;;4924866;28;20041;-68
2022/09/21 10:59:28;;;;;;;;;;;;;;;;;;4963874;28;20355;-68
2022/09/21 11:01:53;;;;;;;;;;;;;;;;;;4932567;28;20028;-67
2022/09/21 11:04:19;;;;;;;;;;;;;;;;;;4930629;28;20317;-68
2022/09/21 11:06:44;;;;;;;;;;;;;;;;;;4934214;28;20013;-68
2022/09/21 11:09:10;;;;;;;;;;;;;;;;;;4964067;28;19918;-66
2022/09/21 11:11:35;;;;;;;;;;;;;;;;;;4962613;28;21547;-68
2022/09/21 11:14:01;;;;;;;;;;;;;;;;;;4963824;28;19922;-67
2022/09/21 11:16:26;;;;;;;;;;;;;;;;;;4962509;28;19918;-67
2022/09/21 11:18:53;;;;;;;;;;;;;;;;;;4930070;28;20302;-67
2022/09/21 11:21:19;;;;;;;;;;;;;;;;;;4931008;28;19994;-65
2022/09/21 11:23:44;;;;;;;;;;;;;;;;;;4964843;28;19922;-66
2022/09/21 11:26:10;;;;;;;;;;;;;;;;;;4929581;28;19929;-67
2022/09/21 11:28:36;;;;;;;;;;;;;;;;;;4946786;28;19922;-67
2022/09/21 11:31:02;;;;;;;;;;;;;;;;;;4963603;28;20471;-67
2022/09/21 11:33:27;;;;;;;;;;;;;;;;;;4929930;28;19933;-68
2022/09/21 11:35:52;;;;;;;;;;;;;;;;;;4931089;28;19965;-68
2022/09/21 11:38:18;;;;;;;;;;;;;;;;;;4927627;28;19926;-68
2022/09/21 11:40:43;;;;;;;;;;;;;;;;;;4926603;28;20399;-69
2022/09/21 11:43:08;;;;;;;;;;;;;;;;;;4958126;28;19985;-69
2022/09/21 11:45:34;;;;;;;;;;;;;;;;;;4958455;28;19929;-68
2022/09/21 11:47:59;;;;;;;;;;;;;;;;;;4928321;28;20386;-67
2022/09/21 11:50:25;;;;;;;;;;;;;;;;;;4959020;28;20020;-67
2022/09/21 11:52:50;;;;;;;;;;;;;;;;;;4943260;28;20351;-67
2022/09/21 11:55:16;;;;;;;;;;;;;;;;;;4961170;28;19991;-66
2022/09/21 11:57:41;;;;;;;;;;;;;;;;;;4953206;28;21183;-68
2022/09/21 12:00:06;;;;;;;;;;;;;;;;;;4958168;28;19945;-67
2022/09/21 12:02:31;;;;;;;;;;;;;;;;;;4942704;28;19933;-67
2022/09/21 12:04:57;;;;;;;;;;;;;;;;;;4956017;28;20010;-65
2022/09/21 12:07:23;;;;;;;;;;;;;;;;;;4943359;28;19923;-68
2022/09/21 12:09:48;;;;;;;;;;;;;;;;;;4929254;28;19918;-67
2022/09/21 12:12:13;;;;;;;;;;;;;;;;;;4963027;28;19974;-67
2022/09/21 12:14:41;;;;;;;;;;;;;;;;;;4931248;28;19919;-66
2022/09/21 12:17:08;;;;;;;;;;;;;;;;;;4958423;28;19922;-66
2022/09/21 12:19:34;;;;;;;;;;;;;;;;;;4960652;28;19931;-66
2022/09/21 12:21:59;;;;;;;;;;;;;;;;;;4927563;28;19950;-67
2022/09/21 12:24:25;;;;;;;;;;;;;;;;;;4963759;28;19949;-67
2022/09/21 12:26:50;;;;;;;;;;;;;;;;;;4929794;28;19929;-67
2022/09/21 12:29:15;;;;;;;;;;;;;;;;;;4930425;28;19970;-67
2022/09/21 12:31:43;;;;;;;;;;;;;;;;;;4962809;28;19926;-67
2022/09/21 12:34:08;;;;;;;;;;;;;;;;;;4945540;28;19964;-67
2022/09/21 12:36:36;;;;;;;;;;;;;;;;;;4928478;28;19923;-66
2022/09/21 12:39:02;;;;;;;;;;;;;;;;;;4932180;28;19922;-66
2022/09/21 12:41:27;;;;;;;;;;;;;;;;;;4945820;28;19932;-67
2022/09/21 12:43:52;;;;;;;;;;;;;;;;;;4930807;28;19961;-67
2022/09/21 12:46:18;;;;;;;;;;;;;;;;;;4946697;28;19926;-67
2022/09/21 12:48:44;;;;;;;;;;;;;;;;;;4963183;28;19938;-67
2022/09/21 15:18:29;;;;;;;;;;;;;;;;;;4836194;29;19931;-65
2022/09/21 15:21:13;;;;;;;;;;;;;;;;;;4871692;29;20128;-65
2022/09/21 15:23:57;;;;;;;;;;;;;;;;;;4924884;28;20701;-66
2022/09/21 15:26:51;;;;;;;;;;;;;;;;;;4885022;29;20007;-66
2022/09/21 15:33:15;;;;;;;;;;;;;;;;;;4793945;29;20043;-66
2022/09/21 15:35:53;;;;;;;;;;;;;;;;;;4835592;29;19926;-66
2022/09/21 15:38:38;;;;;;;;;;;;;;;;;;;;;
2022/09/21 15:41:55;;;;;;;;;;;;;;;;;;4930459;28;19929;-65
2022/09/21 15:48:15;;;;;;;;;;;;;;;;;;;;;
2022/09/21 15:54:30;;;;;;;;;;;;;;;;;;4929139;28;19929;-65
2022/09/21 15:57:10;;;;;;;;;;;;;;;;;;4925536;28;19923;-66
2022/09/21 15:59:38;;;;;;;;;;;;;;;;;;4957828;28;19957;-66
2022/09/21 16:02:03;;;;;;;;;;;;;;;;;;4927661;28;19941;-67
2022/09/21 16:04:30;;;;;;;;;;;;;;;;;;4942830;28;19922;-65
2022/09/21 16:07:11;;;;;;;;;;;;;;;;;;4943086;28;19923;-64
2022/09/21 16:09:37;;;;;;;;;;;;;;;;;;4928390;28;19934;-64
2022/09/21 16:12:04;;;;;;;;;;;;;;;;;;4959180;28;19922;-67
2022/09/21 16:17:19;;;;;;;;;;;;;;;;;;4928832;28;19962;-65
2022/09/21 16:19:45;;;;;;;;;;;;;;;;;;4943473;28;19937;-65
2022/09/21 16:22:28;;;;;;;;;;;;;;;;;;4925441;28;20045;-67
2022/09/21 16:24:54;;;;;;;;;;;;;;;;;;4960645;28;19923;-64
2022/09/21 16:27:19;;;;;;;;;;;;;;;;;;4957850;28;20365;-65
2022/09/21 16:29:45;;;;;;;;;;;;;;;;;;4928167;28;19922;-66
2022/09/21 16:32:13;;;;;;;;;;;;;;;;;;4926243;28;19919;-66
2022/09/21 16:34:41;;;;;;;;;;;;;;;;;;4954180;28;19941;-66
2022/09/21 16:37:07;;;;;;;;;;;;;;;;;;4956503;28;20338;-67
2022/09/21 16:39:34;;;;;;;;;;;;;;;;;;4957677;28;19922;-66
2022/09/21 16:42:02;;;;;;;;;;;;;;;;;;4954773;28;20021;-66
2022/09/21 16:44:38;;;;;;;;;;;;;;;;;;4940653;28;19937;-65
2022/09/21 16:47:06;;;;;;;;;;;;;;;;;;4926127;28;19919;-66
2022/09/21 16:49:32;;;;;;;;;;;;;;;;;;4956416;28;19930;-66
2022/09/21 16:52:00;;;;;;;;;;;;;;;;;;4923764;28;20170;-66
2022/09/21 16:54:28;;;;;;;;;;;;;;;;;;4957806;28;19926;-65
2022/09/21 16:56:54;;;;;;;;;;;;;;;;;;4923947;28;19957;-64
2022/09/21 16:59:20;;;;;;;;;;;;;;;;;;4928716;28;21864;-65
2022/09/21 17:01:51;;;;;;;;;;;;;;;;;;4927997;28;19926;-63
2022/09/21 17:04:19;;;;;;;;;;;;;;;;;;4944891;28;19938;-63
2022/09/21 17:06:46;;;;;;;;;;;;;;;;;;4956952;28;20503;-65
2022/09/21 17:09:12;;;;;;;;;;;;;;;;;;4922137;28;19922;-65
2022/09/21 17:11:44;;;;;;;;;;;;;;;;;;4905318;28;19965;-66
2022/09/21 17:14:14;;;;;;;;;;;;;;;;;;4892304;29;19926;-66
2022/09/21 17:16:40;;;;;;;;;;;;;;;;;;4910542;28;19918;-65
2022/09/21 17:19:06;;;;;;;;;;;;;;;;;;4897817;29;19923;-64
2022/09/21 17:21:37;;;;;;;;;;;;;;;;;;4902872;28;19934;-64
2022/09/21 17:24:02;;;;;;;;;;;;;;;;;;4899454;29;21821;-64
2022/09/21 17:26:33;;;;;;;;;;;;;;;;;;4895047;29;20291;-64
2022/09/21 17:29:04;;;;;;;;;;;;;;;;;;4894527;29;19923;-65
2022/09/21 17:31:30;;;;;;;;;;;;;;;;;;4910441;28;20610;-63
2022/09/21 17:33:56;;;;;;;;;;;;;;;;;;4914033;28;19967;-65
2022/09/21 17:36:21;;;;;;;;;;;;;;;;;;4889323;29;19955;-63
2022/09/21 17:38:47;;;;;;;;;;;;;;;;;;4909161;28;19981;-65
2022/09/21 17:41:15;;;;;;;;;;;;;;;;;;4878739;29;20398;-65
2022/09/21 17:43:40;;;;;;;;;;;;;;;;;;4896906;28;19927;-65
2022/09/21 17:46:10;;;;;;;;;;;;;;;;;;4891691;29;19923;-65
2022/09/21 17:48:36;;;;;;;;;;;;;;;;;;4887409;29;20667;-66
2022/09/21 17:51:03;;;;;;;;;;;;;;;;;;4889868;29;19924;-66
2022/09/21 17:53:39;;;;;;;;;;;;;;;;;;4908605;28;19934;-67
2022/09/21 17:56:07;;;;;;;;;;;;;;;;;;4894459;29;20383;-65
2022/09/21 17:58:35;;;;;;;;;;;;;;;;;;4895939;29;19952;-65
2022/09/21 18:01:03;;;;;;;;;;;;;;;;;;4914657;28;20395;-65
2022/09/21 18:03:30;;;;;;;;;;;;;;;;;;4886272;29;20544;-65
2022/09/21 18:06:01;;;;;;;;;;;;;;;;;;4898713;29;20421;-65
2022/09/21 18:08:28;;;;;;;;;;;;;;;;;;4897342;29;19923;-65
2022/09/21 18:10:54;;;;;;;;;;;;;;;;;;4930733;28;19933;-65
2022/09/21 18:16:09;;;;;;;;;;;;;;;;;;4941495;28;19922;-63
2022/09/21 18:18:34;;;;;;;;;;;;;;;;;;4948265;28;20005;-65
2022/09/21 18:21:02;;;;;;;;;;;;;;;;;;4962022;28;19922;-66
2022/09/21 18:23:28;;;;;;;;;;;;;;;;;;4936297;28;19918;-64
2022/09/21 18:25:53;;;;;;;;;;;;;;;;;;4949026;28;19988;-65
2022/09/21 18:28:22;;;;;;;;;;;;;;;;;;4949999;28;19993;-65
2022/09/21 18:30:48;;;;;;;;;;;;;;;;;;4947431;28;20373;-64
2022/09/21 18:33:13;;;;;;;;;;;;;;;;;;4948847;28;19926;-65
2022/09/21 18:35:38;;;;;;;;;;;;;;;;;;4962028;28;19926;-65
2022/09/21 18:38:04;;;;;;;;;;;;;;;;;;4946442;28;19969;-64
2022/09/21 18:40:31;;;;;;;;;;;;;;;;;;4962808;28;19922;-65
2022/09/21 18:42:57;;;;;;;;;;;;;;;;;;4946332;28;20456;-65
2022/09/21 18:45:23;;;;;;;;;;;;;;;;;;4959664;28;20673;-65
2022/09/21 18:47:50;;;;;;;;;;;;;;;;;;4929153;28;19923;-64
2022/09/21 18:50:16;;;;;;;;;;;;;;;;;;4962908;28;19960;-65
2022/09/21 18:52:44;;;;;;;;;;;;;;;;;;4956446;28;19961;-66
2022/09/21 18:55:09;;;;;;;;;;;;;;;;;;4957444;28;20699;-65
2022/09/21 18:57:34;;;;;;;;;;;;;;;;;;4943040;28;19954;-65
2022/09/21 19:00:00;;;;;;;;;;;;;;;;;;4945196;28;20464;-65
2022/09/21 19:02:28;;;;;;;;;;;;;;;;;;4931206;28;19922;-65
2022/09/21 19:04:57;;;;;;;;;;;;;;;;;;4930807;28;19922;-66
2022/09/21 19:07:24;;;;;;;;;;;;;;;;;;4943949;28;20368;-65
2022/09/21 19:09:51;;;;;;;;;;;;;;;;;;4945324;28;19922;-65
2022/09/21 19:12:18;;;;;;;;;;;;;;;;;;4945418;28;19962;-64
2022/09/21 19:14:44;;;;;;;;;;;;;;;;;;4944106;28;20012;-64
2022/09/21 19:17:11;;;;;;;;;;;;;;;;;;4957347;28;19922;-66
2022/09/21 19:19:37;;;;;;;;;;;;;;;;;;4952545;28;20711;-65
2022/09/21 19:22:02;;;;;;;;;;;;;;;;;;4946935;28;19926;-65
2022/09/21 19:24:30;;;;;;;;;;;;;;;;;;4932864;28;20591;-64
2022/09/21 19:26:55;;;;;;;;;;;;;;;;;;4949282;28;19922;-64